createdAt,value
2023-03-27T00:00:16.596Z,67.14
2023-03-27T00:02:48.748Z,68.54
2023-03-27T00:05:20.390Z,71.67
2023-03-27T00:07:49.540Z,72.04
2023-03-27T00:10:18.893Z,72.11
2023-03-27T00:12:47.353Z,72.52
2023-03-27T00:15:17.496Z,73.22
2023-03-27T00:17:51.720Z,73.82
2023-03-27T00:20:23.294Z,73.71
2023-03-27T00:22:55.480Z,73.03
2023-03-27T00:25:26.788Z,72.81
2023-03-27T00:27:56.362Z,72.78
2023-03-27T00:30:26.269Z,72.19
2023-03-27T00:32:56.467Z,72.14
2023-03-27T00:35:26.584Z,71.77
2023-03-27T00:37:55.972Z,70.94
2023-03-27T00:40:25.438Z,70.21
2023-03-27T00:42:57.682Z,69.46
2023-03-27T00:45:30.227Z,68.59
2023-03-27T00:48:04.732Z,67.26
2023-03-27T00:50:39.072Z,67.09
2023-03-27T00:53:11.473Z,65.47
2023-03-27T00:55:43.657Z,63.90
2023-03-27T00:58:18.915Z,64.42
2023-03-27T01:00:50.745Z,66.01
2023-03-27T01:03:21.676Z,68.24
2023-03-27T01:05:51.440Z,68.22
2023-03-27T01:08:20.389Z,68.16
2023-03-27T01:11:10.680Z,67.16
2023-03-27T01:14:03.770Z,66.99
2023-03-27T01:16:45.937Z,67.28
2023-03-27T01:20:02.636Z,66.69
2023-03-27T01:23:11.497Z,66.46
2023-03-27T01:26:15.997Z,66.77
2023-03-27T01:28:54.803Z,66.52
2023-03-27T01:31:41.946Z,68.94
2023-03-27T01:34:45.006Z,71.65
2023-03-27T01:38:03.786Z,73.55
2023-03-27T01:40:37.592Z,74.48
2023-03-27T01:43:11.320Z,74.90
2023-03-27T01:45:47.065Z,74.60
2023-03-27T01:48:20.337Z,74.79
2023-03-27T01:50:53.260Z,74.36
2023-03-27T01:53:27.021Z,75.01
2023-03-27T01:56:03.810Z,75.80
2023-03-27T01:58:40.278Z,75.16
2023-03-27T02:01:11.417Z,75.13
2023-03-27T02:03:43.815Z,74.60
2023-03-27T02:06:18.651Z,73.41
2023-03-27T02:08:54.560Z,73.47
2023-03-27T02:11:28.033Z,73.55
2023-03-27T02:14:01.624Z,73.75
2023-03-27T02:16:35.584Z,72.93
2023-03-27T02:19:12.350Z,72.86
2023-03-27T02:21:40.722Z,73.35
2023-03-27T02:24:09.282Z,73.53
2023-03-27T02:26:39.621Z,73.68
2023-03-27T02:29:45.709Z,73.74
2023-03-27T02:32:32.473Z,73.85
2023-03-27T02:35:12.623Z,74.00
2023-03-27T02:37:55.261Z,74.49
2023-03-27T02:40:57.128Z,74.06
2023-03-27T02:43:56.101Z,74.54
2023-03-27T02:46:43.753Z,74.59
2023-03-27T02:49:18.540Z,74.25
2023-03-27T02:51:53.784Z,74.40
2023-03-27T02:54:26.964Z,74.58
2023-03-27T02:57:00.220Z,74.98
2023-03-27T02:59:45.524Z,75.18
2023-03-27T03:02:19.999Z,75.46
2023-03-27T03:05:05.518Z,76.10
2023-03-27T03:07:40.191Z,76.65
2023-03-27T03:10:11.613Z,76.25
2023-03-27T03:12:40.252Z,76.11
2023-03-27T03:15:11.190Z,75.88
2023-03-27T03:17:39.760Z,77.11
2023-03-27T03:20:10.529Z,77.46
2023-03-27T03:22:40.016Z,77.29
2023-03-27T03:25:10.681Z,77.61
2023-03-27T03:27:41.349Z,77.06
2023-03-27T03:30:17.284Z,76.09
2023-03-27T03:33:06.369Z,76.27
2023-03-27T03:35:34.862Z,75.66
2023-03-27T03:38:08.232Z,75.26
2023-03-27T03:40:45.828Z,75.24
2023-03-27T03:43:14.227Z,75.29
2023-03-27T03:45:43.948Z,75.51
2023-03-27T03:48:12.392Z,75.35
2023-03-27T03:50:40.732Z,74.86
2023-03-27T03:53:09.124Z,75.06
2023-03-27T03:55:38.343Z,75.64
2023-03-27T03:58:08.012Z,75.90
2023-03-27T04:00:39.349Z,75.31
2023-03-27T04:03:15.743Z,75.14
2023-03-27T04:05:45.511Z,75.52
2023-03-27T04:08:13.868Z,75.01
2023-03-27T04:10:59.981Z,74.77
2023-03-27T04:14:03.843Z,75.51
2023-03-27T04:16:42.863Z,76.50
2023-03-27T04:19:26.545Z,76.09
2023-03-27T04:22:02.453Z,76.10
2023-03-27T04:24:33.829Z,76.19
2023-03-27T04:27:02.283Z,75.82
2023-03-27T04:29:43.432Z,74.08
2023-03-27T04:32:31.256Z,72.68
2023-03-27T04:35:33.479Z,68.00
2023-03-27T04:38:14.747Z,66.65
2023-03-27T04:40:49.414Z,65.35
2023-03-27T04:43:19.052Z,64.04
2023-03-27T04:45:48.400Z,64.85
2023-03-27T04:48:17.620Z,64.56
2023-03-27T04:50:52.443Z,64.94
2023-03-27T04:53:35.904Z,66.33
2023-03-27T04:56:05.477Z,67.23
2023-03-27T04:58:37.738Z,67.19
2023-03-27T05:01:12.685Z,67.46
2023-03-27T05:04:02.491Z,67.64
2023-03-27T05:06:55.994Z,67.87
2023-03-27T05:09:25.315Z,68.35
2023-03-27T05:11:53.982Z,68.67
2023-03-27T05:14:24.539Z,69.10
2023-03-27T05:16:54.300Z,68.98
2023-03-27T05:19:25.537Z,69.43
2023-03-27T05:22:01.377Z,70.03
2023-03-27T05:24:29.984Z,70.16
2023-03-27T05:26:58.355Z,70.43
2023-03-27T05:29:26.874Z,70.62
2023-03-27T05:32:04.534Z,70.76
2023-03-27T05:34:46.099Z,70.93
2023-03-27T05:37:19.255Z,71.34
2023-03-27T05:40:20.976Z,70.96
2023-03-27T05:42:51.232Z,71.50
2023-03-27T05:45:20.084Z,70.96
2023-03-27T05:47:51.932Z,70.88
2023-03-27T05:50:23.191Z,71.19
2023-03-27T05:52:58.522Z,71.27
2023-03-27T05:55:33.751Z,71.26
2023-03-27T05:58:02.639Z,71.14
2023-03-27T06:00:34.156Z,69.94
2023-03-27T06:03:04.436Z,69.60
2023-03-27T06:05:52.420Z,68.22
2023-03-27T06:08:22.662Z,67.53
2023-03-27T06:10:51.162Z,66.59
2023-03-27T06:13:25.748Z,66.46
2023-03-27T06:16:00.389Z,65.33
2023-03-27T06:18:44.139Z,65.42
2023-03-27T06:21:15.381Z,64.05
2023-03-27T06:23:45.850Z,64.61
2023-03-27T06:26:16.976Z,65.71
2023-03-27T06:28:45.626Z,65.86
2023-03-27T06:31:17.584Z,66.30
2023-03-27T06:34:08.706Z,66.13
2023-03-27T06:37:04.731Z,64.80
2023-03-27T06:39:44.234Z,63.92
2023-03-27T06:42:12.602Z,62.18
2023-03-27T06:45:00.939Z,59.94
2023-03-27T06:48:17.947Z,59.67
2023-03-27T06:50:52.842Z,59.27
2023-03-27T06:55:56.436Z,60.66
2023-03-27T06:58:27.734Z,60.83
2023-03-27T07:00:57.025Z,61.87
2023-03-27T07:03:51.626Z,61.04
2023-03-27T07:06:39.635Z,60.76
2023-03-27T07:09:11.982Z,61.37
2023-03-27T07:11:41.810Z,61.36
2023-03-27T07:14:11.424Z,60.72
2023-03-27T07:16:39.847Z,60.50
2023-03-27T07:19:09.565Z,60.09
2023-03-27T07:21:42.218Z,60.33
2023-03-27T07:24:12.814Z,60.59
2023-03-27T07:26:42.627Z,62.19
2023-03-27T07:29:23.421Z,61.61
2023-03-27T07:31:58.891Z,61.80
2023-03-27T07:34:41.140Z,60.28
2023-03-27T07:37:12.434Z,59.86
2023-03-27T07:39:51.271Z,59.31
2023-03-27T07:42:21.726Z,59.85
2023-03-27T07:45:01.808Z,60.42
2023-03-27T07:47:32.213Z,58.75
2023-03-27T07:50:00.908Z,56.51
2023-03-27T07:52:29.487Z,56.05
2023-03-27T07:55:00.865Z,54.91
2023-03-27T07:57:59.175Z,53.53
2023-03-27T08:00:33.964Z,53.60
2023-03-27T08:03:14.061Z,53.65
2023-03-27T08:05:57.792Z,54.02
2023-03-27T08:08:29.423Z,54.56
2023-03-27T08:10:59.636Z,52.72
2023-03-27T08:13:33.371Z,51.86
2023-03-27T08:16:08.725Z,53.00
2023-03-27T08:18:38.278Z,52.32
2023-03-27T08:21:10.441Z,52.13
2023-03-27T08:23:41.220Z,52.50
2023-03-27T08:26:10.525Z,52.32
2023-03-27T08:29:01.102Z,52.57
2023-03-27T08:31:32.249Z,53.58
2023-03-27T08:34:02.651Z,54.32
2023-03-27T08:36:48.276Z,54.40
2023-03-27T08:39:17.722Z,55.59
2023-03-27T08:42:06.261Z,54.90
2023-03-27T08:44:38.665Z,52.34
2023-03-27T08:47:22.343Z,52.85
2023-03-27T08:50:00.298Z,52.18
2023-03-27T08:52:47.743Z,53.14
2023-03-27T08:55:38.509Z,55.28
2023-03-27T08:58:21.458Z,54.85
2023-03-27T09:01:03.483Z,55.19
2023-03-27T09:03:37.041Z,55.08
2023-03-27T09:06:12.479Z,56.03
2023-03-27T09:08:56.567Z,57.33
2023-03-27T09:11:37.674Z,55.44
2023-03-27T09:14:20.932Z,53.05
2023-03-27T09:16:52.785Z,52.68
2023-03-27T09:19:38.355Z,53.42
2023-03-27T09:22:13.700Z,52.38
2023-03-27T09:25:10.984Z,53.57
2023-03-27T09:28:16.525Z,54.03
2023-03-27T09:30:51.116Z,54.32
2023-03-27T09:33:29.371Z,54.78
2023-03-27T09:35:59.648Z,54.11
2023-03-27T09:38:33.231Z,54.49
2023-03-27T09:41:09.020Z,54.20
2023-03-27T09:43:43.972Z,55.60
2023-03-27T09:46:18.101Z,57.11
2023-03-27T09:49:00.502Z,56.07
2023-03-27T09:51:42.030Z,55.45
2023-03-27T09:54:54.403Z,56.51
2023-03-27T09:57:38.633Z,57.17
2023-03-27T10:00:26.996Z,55.50
2023-03-27T10:03:03.674Z,55.24
2023-03-27T10:05:35.428Z,54.76
2023-03-27T10:08:40.755Z,52.38
2023-03-27T10:11:19.769Z,53.21
2023-03-27T10:13:55.624Z,53.87
2023-03-27T10:16:27.851Z,54.87
2023-03-27T10:19:02.270Z,56.19
2023-03-27T10:21:42.608Z,57.22
2023-03-27T10:24:22.642Z,57.98
2023-03-27T10:27:21.468Z,58.81
2023-03-27T10:30:29.557Z,59.77
2023-03-27T10:33:31.821Z,59.94
2023-03-27T10:36:20.374Z,59.16
2023-03-27T10:38:57.339Z,59.15
2023-03-27T10:41:37.546Z,59.97
2023-03-27T10:44:17.658Z,58.08
2023-03-27T10:46:52.108Z,56.77
2023-03-27T10:49:31.760Z,53.26
2023-03-27T10:52:16.431Z,53.11
2023-03-27T10:55:30.339Z,52.89
2023-03-27T10:58:05.293Z,53.00
2023-03-27T11:00:43.455Z,54.40
2023-03-27T11:03:21.734Z,54.75
2023-03-27T11:05:58.358Z,57.10
2023-03-27T11:08:44.138Z,58.51
2023-03-27T11:11:20.370Z,55.78
2023-03-27T11:13:52.184Z,56.05
2023-03-27T11:16:27.459Z,56.52
2023-03-27T11:19:31.454Z,55.44
2023-03-27T11:22:24.702Z,54.23
2023-03-27T11:24:58.699Z,54.49
2023-03-27T11:27:35.664Z,55.62
2023-03-27T11:30:37.253Z,56.44
2023-03-27T11:33:40.170Z,57.54
2023-03-27T11:36:34.230Z,57.73
2023-03-27T11:39:20.964Z,57.35
2023-03-27T11:41:54.549Z,55.87
2023-03-27T11:44:26.615Z,55.88
2023-03-27T11:47:28.489Z,56.09
2023-03-27T11:50:37.189Z,54.57
2023-03-27T11:53:23.528Z,54.98
2023-03-27T11:56:32.409Z,57.38
2023-03-27T11:59:46.576Z,56.71
2023-03-27T12:02:55.775Z,56.32
2023-03-27T12:05:43.174Z,55.95
2023-03-27T12:08:22.732Z,53.61
2023-03-27T12:10:54.019Z,51.49
2023-03-27T12:14:01.838Z,51.29
2023-03-27T12:17:12.043Z,49.72
2023-03-27T12:20:51.806Z,49.77
2023-03-27T12:23:52.712Z,48.78
2023-03-27T12:27:24.058Z,48.72
2023-03-27T12:30:21.623Z,50.76
2023-03-27T12:33:11.868Z,51.91
2023-03-27T12:35:47.108Z,52.75
2023-03-27T12:38:28.970Z,53.11
2023-03-27T12:41:06.883Z,55.16
2023-03-27T12:43:58.433Z,56.18
2023-03-27T12:46:39.936Z,55.65
2023-03-27T12:49:47.443Z,54.29
2023-03-27T12:52:28.545Z,54.88
2023-03-27T12:55:32.328Z,54.30
2023-03-27T12:58:03.916Z,53.59
2023-03-27T13:01:00.333Z,53.52
2023-03-27T13:04:51.372Z,54.76
2023-03-27T13:07:26.615Z,55.92
2023-03-27T13:10:27.702Z,55.67
2023-03-27T13:13:29.580Z,54.68
2023-03-27T13:16:14.009Z,54.53
2023-03-27T13:19:07.204Z,53.83
2023-03-27T13:22:08.415Z,54.73
2023-03-27T13:25:23.888Z,55.74
2023-03-27T13:28:28.315Z,57.81
2023-03-27T13:31:11.220Z,59.49
2023-03-27T13:33:47.543Z,58.11
2023-03-27T13:36:30.933Z,57.33
2023-03-27T13:39:24.081Z,56.82
2023-03-27T13:42:13.452Z,57.53
2023-03-27T13:45:00.466Z,58.01
2023-03-27T13:48:18.557Z,57.21
2023-03-27T13:51:26.579Z,56.76
2023-03-27T13:54:41.374Z,54.00
2023-03-27T13:57:25.329Z,54.52
2023-03-27T14:00:41.497Z,54.65
2023-03-27T14:04:18.565Z,54.66
2023-03-27T14:07:35.443Z,54.25
2023-03-27T14:10:24.942Z,54.05
2023-03-27T14:13:21.452Z,52.89
2023-03-27T14:16:20.191Z,52.71
2023-03-27T14:19:29.549Z,54.20
2023-03-27T14:22:04.892Z,54.96
2023-03-27T14:24:43.592Z,54.93
2023-03-27T14:27:24.182Z,54.86
2023-03-27T14:30:06.830Z,54.09
2023-03-27T14:32:36.062Z,53.84
2023-03-27T14:35:05.637Z,54.32
2023-03-27T14:37:42.046Z,52.37
2023-03-27T14:40:34.705Z,53.94
2023-03-27T14:43:08.506Z,54.16
2023-03-27T14:45:40.730Z,52.90
2023-03-27T14:48:22.251Z,52.24
2023-03-27T14:50:53.780Z,52.05
2023-03-27T14:53:28.245Z,53.63
2023-03-27T14:56:28.685Z,54.06
2023-03-27T14:59:13.898Z,53.45
2023-03-27T15:01:52.277Z,52.70
2023-03-27T15:04:21.103Z,53.72
2023-03-27T15:06:55.898Z,53.40
2023-03-27T15:09:48.146Z,54.19
2023-03-27T15:12:47.126Z,55.22
2023-03-27T15:15:38.536Z,55.97
2023-03-27T15:18:15.424Z,56.33
2023-03-27T15:20:45.114Z,54.86
2023-03-27T15:23:20.332Z,54.42
2023-03-27T15:25:57.714Z,53.86
2023-03-27T15:28:32.642Z,54.34
2023-03-27T15:31:04.979Z,53.93
2023-03-27T15:33:41.399Z,54.55
2023-03-27T15:36:26.350Z,52.37
2023-03-27T15:38:55.452Z,54.62
2023-03-27T15:41:44.057Z,54.70
2023-03-27T15:44:18.125Z,54.86
2023-03-27T15:46:55.734Z,55.00
2023-03-27T15:49:32.605Z,54.03
2023-03-27T15:52:31.996Z,53.63
2023-03-27T15:55:01.350Z,54.75
2023-03-27T15:57:30.587Z,53.71
2023-03-27T16:00:08.513Z,53.74
2023-03-27T16:02:43.262Z,53.81
2023-03-27T16:05:18.183Z,52.30
2023-03-27T16:07:48.708Z,51.98
2023-03-27T16:10:32.014Z,53.47
2023-03-27T16:13:03.066Z,53.63
2023-03-27T16:15:37.481Z,54.01
2023-03-27T16:18:19.029Z,54.88
2023-03-27T16:20:48.018Z,55.47
2023-03-27T16:23:16.597Z,55.69
2023-03-27T16:25:45.332Z,56.10
2023-03-27T16:28:17.678Z,56.81
2023-03-27T16:30:46.221Z,56.04
2023-03-27T16:33:17.898Z,54.41
2023-03-27T16:35:47.476Z,55.01
2023-03-27T16:38:16.134Z,55.41
2023-03-27T16:40:44.790Z,55.50
2023-03-27T16:43:13.438Z,55.20
2023-03-27T16:45:42.295Z,55.27
2023-03-27T16:48:13.438Z,53.78
2023-03-27T16:50:43.268Z,54.01
2023-03-27T16:53:11.663Z,55.03
2023-03-27T16:55:40.012Z,54.27
2023-03-27T16:58:08.478Z,54.09
2023-03-27T17:00:36.816Z,53.39
2023-03-27T17:03:05.428Z,52.93
2023-03-27T17:05:34.462Z,53.36
2023-03-27T17:08:07.152Z,53.50
2023-03-27T17:10:35.904Z,53.32
2023-03-27T17:13:04.251Z,54.69
2023-03-27T17:15:36.562Z,55.55
2023-03-27T17:18:05.302Z,57.06
2023-03-27T17:20:34.781Z,58.05
2023-03-27T17:23:04.527Z,55.84
2023-03-27T17:25:32.832Z,55.57
2023-03-27T17:28:01.261Z,56.11
2023-03-27T17:30:39.363Z,56.24
2023-03-27T17:33:09.631Z,56.24
2023-03-27T17:35:40.319Z,56.43
2023-03-27T17:38:10.300Z,56.77
2023-03-27T17:40:41.313Z,57.30
2023-03-27T17:43:10.398Z,56.74
2023-03-27T17:45:42.114Z,57.77
2023-03-27T17:48:11.789Z,58.29
2023-03-27T17:50:40.617Z,57.92
2023-03-27T17:53:10.525Z,59.45
2023-03-27T17:55:39.056Z,59.88
2023-03-27T17:58:09.930Z,61.02
2023-03-27T18:00:39.506Z,61.12
2023-03-27T18:03:08.908Z,61.35
2023-03-27T18:05:38.698Z,61.56
2023-03-27T18:08:10.322Z,61.48
2023-03-27T18:10:41.794Z,61.69
2023-03-27T18:13:10.178Z,62.10
2023-03-27T18:15:40.786Z,61.43
2023-03-27T18:18:09.284Z,60.90
2023-03-27T18:20:38.545Z,61.29
2023-03-27T18:23:07.356Z,59.58
2023-03-27T18:25:41.941Z,59.72
2023-03-27T18:28:10.971Z,60.24
2023-03-27T18:30:40.106Z,59.16
2023-03-27T18:33:08.801Z,59.21
2023-03-27T18:35:37.814Z,59.02
2023-03-27T18:38:07.269Z,59.08
2023-03-27T18:40:36.952Z,59.30
2023-03-27T18:43:05.576Z,59.35
2023-03-27T18:45:34.498Z,58.33
2023-03-27T18:48:02.966Z,59.16
2023-03-27T18:50:31.382Z,58.86
2023-03-27T18:52:59.804Z,59.01
2023-03-27T18:55:28.161Z,58.52
2023-03-27T18:57:58.024Z,58.40
2023-03-27T19:00:26.382Z,58.90
2023-03-27T19:02:54.779Z,58.99
2023-03-27T19:05:23.203Z,58.95
2023-03-27T19:07:53.610Z,58.87
2023-03-27T19:10:22.063Z,58.12
2023-03-27T19:13:12.052Z,58.64
2023-03-27T19:16:14.267Z,58.18
2023-03-27T19:18:49.547Z,58.87
2023-03-27T19:21:36.379Z,58.59
2023-03-27T19:24:07.866Z,58.39
2023-03-27T19:26:45.482Z,59.12
2023-03-27T19:29:15.417Z,59.10
2023-03-27T19:31:43.842Z,59.11
2023-03-27T19:34:12.194Z,59.19
2023-03-27T19:36:40.661Z,59.10
2023-03-27T19:39:09.364Z,59.13
2023-03-27T19:41:37.733Z,58.82
2023-03-27T19:44:06.790Z,59.57
2023-03-27T19:46:36.618Z,59.29
2023-03-27T19:49:05.311Z,59.62
2023-03-27T19:51:47.129Z,59.75
2023-03-27T19:54:15.832Z,59.65
2023-03-27T19:56:44.294Z,60.20
2023-03-27T19:59:20.778Z,60.56
2023-03-27T20:01:57.925Z,59.95
2023-03-27T20:04:26.475Z,60.23
2023-03-27T20:07:01.929Z,60.78
2023-03-27T20:09:30.496Z,60.22
2023-03-27T20:11:58.778Z,59.47
2023-03-27T20:14:27.153Z,59.88
2023-03-27T20:16:56.897Z,59.93
2023-03-27T20:19:27.009Z,59.13
2023-03-27T20:21:57.632Z,59.07
2023-03-27T20:24:25.937Z,58.31
2023-03-27T20:26:59.013Z,58.84
2023-03-27T20:29:27.972Z,58.94
2023-03-27T20:31:57.693Z,59.22
2023-03-27T20:34:26.037Z,60.08
2023-03-27T20:36:54.942Z,59.95
2023-03-27T20:39:47.008Z,59.82
2023-03-27T20:42:18.508Z,59.49
2023-03-27T20:44:54.908Z,60.29
2023-03-27T20:47:24.780Z,60.76
2023-03-27T20:49:53.142Z,60.84
2023-03-27T20:52:22.964Z,60.34
2023-03-27T20:54:51.673Z,60.75
2023-03-27T20:57:22.226Z,60.58
2023-03-27T20:59:51.245Z,60.29
2023-03-27T21:02:24.434Z,61.00
2023-03-27T21:04:52.938Z,60.67
2023-03-27T21:07:21.328Z,61.39
2023-03-27T21:09:49.673Z,61.53
2023-03-27T21:12:18.110Z,61.62
2023-03-27T21:14:46.555Z,61.40
2023-03-27T21:17:14.868Z,61.23
2023-03-27T21:19:44.665Z,61.62
2023-03-27T21:22:13.091Z,61.53
2023-03-27T21:24:41.929Z,61.63
2023-03-27T21:27:10.625Z,60.91
2023-03-27T21:29:39.411Z,60.83
2023-03-27T21:32:09.277Z,60.44
2023-03-27T21:34:37.765Z,61.76
2023-03-27T21:37:07.444Z,62.07
2023-03-27T21:39:35.950Z,62.13
2023-03-27T21:42:04.462Z,62.47
2023-03-27T21:44:32.954Z,61.88
2023-03-27T21:47:01.416Z,62.75
2023-03-27T21:49:30.029Z,62.03
2023-03-27T21:51:58.477Z,61.67
2023-03-27T21:54:28.221Z,61.38
2023-03-27T21:56:56.654Z,62.30
2023-03-27T21:59:27.202Z,63.17
2023-03-27T22:01:55.689Z,63.40
2023-03-27T22:04:24.419Z,63.31
2023-03-27T22:06:53.709Z,63.47
2023-03-27T22:09:22.492Z,63.39
2023-03-27T22:11:52.246Z,62.88
2023-03-27T22:14:20.576Z,63.38
2023-03-27T22:16:49.027Z,64.05
2023-03-27T22:19:17.524Z,64.46
2023-03-27T22:21:46.090Z,65.08
2023-03-27T22:24:14.489Z,65.99
2023-03-27T22:26:42.997Z,66.30
2023-03-27T22:29:12.761Z,67.47
2023-03-27T22:31:41.146Z,68.75
2023-03-27T22:34:09.718Z,69.31
2023-03-27T22:36:38.102Z,69.96
2023-03-27T22:39:06.644Z,70.74
2023-03-27T22:41:34.983Z,71.06
2023-03-27T22:44:03.307Z,70.83
2023-03-27T22:46:33.192Z,70.90
2023-03-27T22:49:01.564Z,71.05
2023-03-27T22:51:31.911Z,70.07
2023-03-27T22:54:00.693Z,69.72
2023-03-27T22:56:29.219Z,70.25
2023-03-27T22:58:57.937Z,70.13
2023-03-27T23:01:26.536Z,69.81
2023-03-27T23:03:56.500Z,69.84
2023-03-27T23:06:25.541Z,70.71
2023-03-27T23:08:54.322Z,70.91
2023-03-27T23:11:24.022Z,70.87
2023-03-27T23:13:52.342Z,70.83
2023-03-27T23:16:20.774Z,71.75
2023-03-27T23:18:49.177Z,72.04
2023-03-27T23:21:18.915Z,71.49
2023-03-27T23:23:47.600Z,70.23
2023-03-27T23:26:18.025Z,69.40
2023-03-27T23:28:46.573Z,68.45
2023-03-27T23:31:17.293Z,68.35
2023-03-27T23:33:48.147Z,69.45
2023-03-27T23:36:20.521Z,70.22
2023-03-27T23:38:49.110Z,70.87
2023-03-27T23:41:19.749Z,70.61
2023-03-27T23:43:48.103Z,69.49
2023-03-27T23:46:17.156Z,68.69
2023-03-27T23:48:46.237Z,68.33
2023-03-27T23:51:18.066Z,68.68
2023-03-27T23:53:46.652Z,68.82
2023-03-27T23:56:15.105Z,69.87
2023-03-27T23:58:43.830Z,69.35
